sensor_id;sensor_type;location;lat;lon;timestamp;pressure;altitude;pressure_sealevel;temperature;humidity
54978;BME280;40873;47.522;19.106;2022-10-16T00:01:12;100825.59;;;14.91;78.28
54978;BME280;40873;47.522;19.106;2022-10-16T00:03:44;100821.00;;;14.93;77.66
54978;BME280;40873;47.522;19.106;2022-10-16T00:06:13;100819.84;;;14.97;77.23
54978;BME280;40873;47.522;19.106;2022-10-16T00:08:40;100828.78;;;14.84;78.13
54978;BME280;40873;47.522;19.106;2022-10-16T00:11:13;100824.03;;;14.76;78.13
54978;BME280;40873;47.522;19.106;2022-10-16T00:13:42;100824.22;;;14.73;77.96
54978;BME280;40873;47.522;19.106;2022-10-16T00:16:10;100824.97;;;14.62;78.18
54978;BME280;40873;47.522;19.106;2022-10-16T00:18:38;100824.03;;;14.76;77.62
54978;BME280;40873;47.522;19.106;2022-10-16T00:21:19;100831.69;;;14.68;77.99
54978;BME280;40873;47.522;19.106;2022-10-16T00:23:50;100834.09;;;14.71;77.49
54978;BME280;40873;47.522;19.106;2022-10-16T00:26:17;100835.38;;;14.65;77.68
54978;BME280;40873;47.522;19.106;2022-10-16T00:28:46;100836.16;;;14.67;77.96
54978;BME280;40873;47.522;19.106;2022-10-16T00:31:14;100837.63;;;14.59;77.93
54978;BME280;40873;47.522;19.106;2022-10-16T00:33:42;100850.59;;;14.63;77.22
54978;BME280;40873;47.522;19.106;2022-10-16T00:36:12;100854.19;;;14.62;77.42
54978;BME280;40873;47.522;19.106;2022-10-16T00:38:39;100856.22;;;14.71;77.02
54978;BME280;40873;47.522;19.106;2022-10-16T00:41:09;100853.44;;;14.73;76.59
54978;BME280;40873;47.522;19.106;2022-10-16T00:43:44;100851.75;;;14.72;76.30
54978;BME280;40873;47.522;19.106;2022-10-16T00:48:55;100851.41;;;14.51;76.91
54978;BME280;40873;47.522;19.106;2022-10-16T00:51:28;100850.16;;;14.57;77.14
54978;BME280;40873;47.522;19.106;2022-10-16T00:53:57;100845.66;;;14.44;77.98
54978;BME280;40873;47.522;19.106;2022-10-16T00:56:24;100853.34;;;14.62;76.23
54978;BME280;40873;47.522;19.106;2022-10-16T00:58:51;100856.72;;;14.51;76.75
54978;BME280;40873;47.522;19.106;2022-10-16T01:01:18;100858.97;;;14.57;76.37
54978;BME280;40873;47.522;19.106;2022-10-16T01:03:45;100863.66;;;14.53;76.17
54978;BME280;40873;47.522;19.106;2022-10-16T01:06:24;100865.97;;;14.58;75.30
54978;BME280;40873;47.522;19.106;2022-10-16T01:09:12;100866.72;;;14.47;75.57
54978;BME280;40873;47.522;19.106;2022-10-16T01:17:17;100864.75;;;14.37;75.80
54978;BME280;40873;47.522;19.106;2022-10-16T01:20:22;100864.56;;;14.40;76.03
54978;BME280;40873;47.522;19.106;2022-10-16T01:31:18;100879.59;;;14.39;75.71
54978;BME280;40873;47.522;19.106;2022-10-16T01:33:51;100876.84;;;14.28;76.43
54978;BME280;40873;47.522;19.106;2022-10-16T01:36:26;100873.00;;;14.32;76.04
54978;BME280;40873;47.522;19.106;2022-10-16T01:38:56;100874.31;;;14.26;76.59
54978;BME280;40873;47.522;19.106;2022-10-16T01:41:37;100878.59;;;14.02;78.85
54978;BME280;40873;47.522;19.106;2022-10-16T01:44:10;100888.41;;;13.87;80.61
54978;BME280;40873;47.522;19.106;2022-10-16T01:46:41;100883.53;;;13.67;82.08
54978;BME280;40873;47.522;19.106;2022-10-16T01:49:10;100896.25;;;13.62;82.74
54978;BME280;40873;47.522;19.106;2022-10-16T01:51:42;100890.78;;;13.51;84.39
54978;BME280;40873;47.522;19.106;2022-10-16T01:54:11;100901.31;;;13.38;85.47
54978;BME280;40873;47.522;19.106;2022-10-16T01:56:40;100904.06;;;13.36;85.93
54978;BME280;40873;47.522;19.106;2022-10-16T01:59:14;100900.19;;;13.28;86.76
54978;BME280;40873;47.522;19.106;2022-10-16T02:01:47;100904.84;;;13.24;87.46
54978;BME280;40873;47.522;19.106;2022-10-16T02:04:26;100908.94;;;13.14;88.61
54978;BME280;40873;47.522;19.106;2022-10-16T02:06:55;100918.91;;;13.10;88.38
54978;BME280;40873;47.522;19.106;2022-10-16T02:09:22;100907.72;;;12.91;89.77
54978;BME280;40873;47.522;19.106;2022-10-16T02:11:52;100909.91;;;12.99;89.75
54978;BME280;40873;47.522;19.106;2022-10-16T02:14:21;100908.19;;;12.83;90.76
54978;BME280;40873;47.522;19.106;2022-10-16T02:16:51;100908.56;;;12.63;92.44
54978;BME280;40873;47.522;19.106;2022-10-16T02:19:18;100917.63;;;12.59;92.90
54978;BME280;40873;47.522;19.106;2022-10-16T02:24:26;100907.78;;;12.47;94.42
54978;BME280;40873;47.522;19.106;2022-10-16T02:29:39;100905.34;;;12.28;95.06
54978;BME280;40873;47.522;19.106;2022-10-16T02:32:08;100905.91;;;12.19;96.17
54978;BME280;40873;47.522;19.106;2022-10-16T02:34:37;100915.44;;;12.21;96.76
54978;BME280;40873;47.522;19.106;2022-10-16T02:37:05;100913.03;;;12.17;97.16
54978;BME280;40873;47.522;19.106;2022-10-16T02:39:33;100919.38;;;12.14;97.10
54978;BME280;40873;47.522;19.106;2022-10-16T02:42:01;100925.47;;;12.00;98.89
54978;BME280;40873;47.522;19.106;2022-10-16T02:44:28;100916.00;;;11.96;98.86
54978;BME280;40873;47.522;19.106;2022-10-16T02:46:55;100920.44;;;11.96;98.95
54978;BME280;40873;47.522;19.106;2022-10-16T02:49:22;100917.56;;;11.85;99.89
54978;BME280;40873;47.522;19.106;2022-10-16T02:51:48;100925.59;;;11.83;100.00
54978;BME280;40873;47.522;19.106;2022-10-16T02:54:15;100926.34;;;11.85;99.78
54978;BME280;40873;47.522;19.106;2022-10-16T02:56:42;100921.78;;;11.71;100.00
54978;BME280;40873;47.522;19.106;2022-10-16T02:59:09;100924.34;;;11.73;100.00
54978;BME280;40873;47.522;19.106;2022-10-16T03:01:36;100923.06;;;11.64;100.00
54978;BME280;40873;47.522;19.106;2022-10-16T03:04:03;100925.63;;;11.66;100.00
54978;BME280;40873;47.522;19.106;2022-10-16T03:06:30;100930.16;;;11.64;100.00
54978;BME280;40873;47.522;19.106;2022-10-16T03:08:57;100929.03;;;11.52;100.00
54978;BME280;40873;47.522;19.106;2022-10-16T03:11:24;100933.38;;;11.53;100.00
54978;BME280;40873;47.522;19.106;2022-10-16T03:13:51;100933.97;;;11.58;100.00
54978;BME280;40873;47.522;19.106;2022-10-16T03:16:18;100933.31;;;11.55;100.00
54978;BME280;40873;47.522;19.106;2022-10-16T03:18:48;100936.19;;;11.50;100.00
54978;BME280;40873;47.522;19.106;2022-10-16T03:21:16;100939.59;;;11.36;100.00
54978;BME280;40873;47.522;19.106;2022-10-16T03:23:43;100935.41;;;11.32;100.00
54978;BME280;40873;47.522;19.106;2022-10-16T03:26:10;100950.47;;;11.30;100.00
54978;BME280;40873;47.522;19.106;2022-10-16T03:28:36;100947.16;;;11.27;100.00
54978;BME280;40873;47.522;19.106;2022-10-16T03:31:04;100952.81;;;11.19;100.00
54978;BME280;40873;47.522;19.106;2022-10-16T03:33:31;100951.97;;;11.18;100.00
54978;BME280;40873;47.522;19.106;2022-10-16T03:35:58;100955.81;;;11.13;100.00
54978;BME280;40873;47.522;19.106;2022-10-16T03:38:27;100967.38;;;11.10;100.00
54978;BME280;40873;47.522;19.106;2022-10-16T03:40:54;100971.13;;;11.06;100.00
54978;BME280;40873;47.522;19.106;2022-10-16T03:43:21;100974.09;;;11.00;100.00
54978;BME280;40873;47.522;19.106;2022-10-16T03:45:50;100975.22;;;11.12;100.00
54978;BME280;40873;47.522;19.106;2022-10-16T03:48:17;100973.47;;;10.95;100.00
54978;BME280;40873;47.522;19.106;2022-10-16T03:50:44;100965.63;;;10.93;100.00
54978;BME280;40873;47.522;19.106;2022-10-16T03:53:12;100979.44;;;10.98;100.00
54978;BME280;40873;47.522;19.106;2022-10-16T03:55:41;100977.44;;;10.86;100.00
54978;BME280;40873;47.522;19.106;2022-10-16T03:58:08;100973.34;;;10.81;100.00
54978;BME280;40873;47.522;19.106;2022-10-16T04:00:35;100973.97;;;10.86;100.00
54978;BME280;40873;47.522;19.106;2022-10-16T04:03:02;100975.88;;;10.82;100.00
54978;BME280;40873;47.522;19.106;2022-10-16T04:05:29;100972.69;;;10.76;100.00
54978;BME280;40873;47.522;19.106;2022-10-16T04:07:56;100977.22;;;10.74;100.00
54978;BME280;40873;47.522;19.106;2022-10-16T04:10:23;100978.28;;;10.69;100.00
54978;BME280;40873;47.522;19.106;2022-10-16T04:12:50;100978.91;;;10.75;100.00
54978;BME280;40873;47.522;19.106;2022-10-16T04:15:17;100981.41;;;10.60;100.00
54978;BME280;40873;47.522;19.106;2022-10-16T04:17:43;100984.13;;;10.59;100.00
54978;BME280;40873;47.522;19.106;2022-10-16T04:20:10;100980.34;;;10.64;100.00
54978;BME280;40873;47.522;19.106;2022-10-16T04:22:37;100977.19;;;10.56;100.00
54978;BME280;40873;47.522;19.106;2022-10-16T04:25:04;100984.34;;;10.54;100.00
54978;BME280;40873;47.522;19.106;2022-10-16T04:27:32;100981.78;;;10.53;100.00
54978;BME280;40873;47.522;19.106;2022-10-16T04:29:59;100984.22;;;10.57;100.00
54978;BME280;40873;47.522;19.106;2022-10-16T04:32:26;100980.56;;;10.60;100.00
54978;BME280;40873;47.522;19.106;2022-10-16T04:34:53;100978.84;;;10.59;100.00
54978;BME280;40873;47.522;19.106;2022-10-16T04:37:24;100988.22;;;10.47;100.00
54978;BME280;40873;47.522;19.106;2022-10-16T04:39:53;100995.84;;;10.53;100.00
54978;BME280;40873;47.522;19.106;2022-10-16T04:42:20;100992.47;;;10.50;100.00
54978;BME280;40873;47.522;19.106;2022-10-16T04:44:47;101000.47;;;10.48;100.00
54978;BME280;40873;47.522;19.106;2022-10-16T04:47:14;100997.75;;;10.50;100.00
54978;BME280;40873;47.522;19.106;2022-10-16T04:49:41;101001.75;;;10.58;100.00
54978;BME280;40873;47.522;19.106;2022-10-16T04:52:08;101003.28;;;10.45;100.00
54978;BME280;40873;47.522;19.106;2022-10-16T04:54:36;100997.66;;;10.34;100.00
54978;BME280;40873;47.522;19.106;2022-10-16T04:57:03;101003.97;;;10.31;100.00
54978;BME280;40873;47.522;19.106;2022-10-16T04:59:31;101015.75;;;10.24;100.00
54978;BME280;40873;47.522;19.106;2022-10-16T05:01:58;101006.13;;;10.40;100.00
54978;BME280;40873;47.522;19.106;2022-10-16T05:04:25;101018.84;;;10.32;100.00
54978;BME280;40873;47.522;19.106;2022-10-16T05:06:52;101013.09;;;10.24;100.00
54978;BME280;40873;47.522;19.106;2022-10-16T05:09:19;101020.41;;;10.18;100.00
54978;BME280;40873;47.522;19.106;2022-10-16T05:11:45;101018.22;;;10.27;100.00
54978;BME280;40873;47.522;19.106;2022-10-16T05:14:13;101013.50;;;10.15;100.00
54978;BME280;40873;47.522;19.106;2022-10-16T05:16:39;101016.13;;;10.15;100.00
54978;BME280;40873;47.522;19.106;2022-10-16T05:19:06;101023.13;;;10.16;100.00
54978;BME280;40873;47.522;19.106;2022-10-16T05:21:53;101017.50;;;10.05;100.00
54978;BME280;40873;47.522;19.106;2022-10-16T05:24:20;101020.13;;;10.05;100.00
54978;BME280;40873;47.522;19.106;2022-10-16T05:26:47;101024.06;;;9.96;100.00
54978;BME280;40873;47.522;19.106;2022-10-16T05:29:14;101027.84;;;10.09;100.00
54978;BME280;40873;47.522;19.106;2022-10-16T05:31:41;101036.69;;;10.08;100.00
54978;BME280;40873;47.522;19.106;2022-10-16T05:34:08;101035.31;;;10.00;100.00
54978;BME280;40873;47.522;19.106;2022-10-16T05:36:35;101037.94;;;10.00;100.00
54978;BME280;40873;47.522;19.106;2022-10-16T05:39:02;101045.56;;;10.06;100.00
54978;BME280;40873;47.522;19.106;2022-10-16T05:41:29;101044.84;;;10.21;100.00
54978;BME280;40873;47.522;19.106;2022-10-16T05:43:56;101043.59;;;10.30;100.00
54978;BME280;40873;47.522;19.106;2022-10-16T05:46:22;101044.75;;;10.24;100.00
54978;BME280;40873;47.522;19.106;2022-10-16T05:48:52;101045.06;;;10.35;100.00
54978;BME280;40873;47.522;19.106;2022-10-16T05:51:20;101052.06;;;10.36;100.00
54978;BME280;40873;47.522;19.106;2022-10-16T05:53:47;101047.28;;;10.45;100.00
54978;BME280;40873;47.522;19.106;2022-10-16T05:56:14;101047.50;;;10.40;100.00
54978;BME280;40873;47.522;19.106;2022-10-16T05:58:41;101043.22;;;10.37;100.00
54978;BME280;40873;47.522;19.106;2022-10-16T06:01:13;101046.47;;;10.42;100.00
54978;BME280;40873;47.522;19.106;2022-10-16T06:03:41;101053.97;;;10.52;100.00
54978;BME280;40873;47.522;19.106;2022-10-16T06:06:12;101060.41;;;10.63;100.00
54978;BME280;40873;47.522;19.106;2022-10-16T06:08:41;101066.09;;;10.73;100.00
54978;BME280;40873;47.522;19.106;2022-10-16T06:11:10;101068.66;;;10.75;100.00
54978;BME280;40873;47.522;19.106;2022-10-16T06:13:37;101069.00;;;10.86;100.00
54978;BME280;40873;47.522;19.106;2022-10-16T06:16:05;101070.31;;;10.94;100.00
54978;BME280;40873;47.522;19.106;2022-10-16T06:18:32;101064.72;;;11.01;100.00
54978;BME280;40873;47.522;19.106;2022-10-16T06:20:59;101070.22;;;11.13;99.27
54978;BME280;40873;47.522;19.106;2022-10-16T06:23:28;101066.34;;;11.20;99.08
54978;BME280;40873;47.522;19.106;2022-10-16T06:26:12;101076.97;;;11.36;97.27
54978;BME280;40873;47.522;19.106;2022-10-16T06:28:42;101076.88;;;11.55;94.08
54978;BME280;40873;47.522;19.106;2022-10-16T06:31:10;101073.69;;;11.82;90.49
54978;BME280;40873;47.522;19.106;2022-10-16T06:33:38;101088.81;;;11.95;89.70
54978;BME280;40873;47.522;19.106;2022-10-16T06:36:08;101095.88;;;11.95;89.44
54978;BME280;40873;47.522;19.106;2022-10-16T06:38:35;101102.59;;;12.18;86.29
54978;BME280;40873;47.522;19.106;2022-10-16T06:41:03;101105.38;;;12.15;86.72
54978;BME280;40873;47.522;19.106;2022-10-16T06:43:31;101107.50;;;12.08;87.37
54978;BME280;40873;47.522;19.106;2022-10-16T06:46:05;101112.75;;;12.25;86.20
54978;BME280;40873;47.522;19.106;2022-10-16T06:48:34;101115.97;;;12.30;85.48
54978;BME280;40873;47.522;19.106;2022-10-16T06:51:21;101121.19;;;12.32;84.86
54978;BME280;40873;47.522;19.106;2022-10-16T06:53:53;101114.97;;;12.33;85.39
54978;BME280;40873;47.522;19.106;2022-10-16T06:56:30;101116.25;;;12.42;84.98
54978;BME280;40873;47.522;19.106;2022-10-16T06:58:58;101119.66;;;12.44;84.96
54978;BME280;40873;47.522;19.106;2022-10-16T07:01:27;101119.16;;;12.53;85.25
54978;BME280;40873;47.522;19.106;2022-10-16T07:03:54;101116.22;;;12.57;85.43
54978;BME280;40873;47.522;19.106;2022-10-16T07:06:23;101118.69;;;12.76;83.99
54978;BME280;40873;47.522;19.106;2022-10-16T07:08:51;101126.88;;;12.87;82.69
54978;BME280;40873;47.522;19.106;2022-10-16T07:11:20;101141.91;;;13.33;79.83
54978;BME280;40873;47.522;19.106;2022-10-16T07:13:48;101135.94;;;13.29;79.66
54978;BME280;40873;47.522;19.106;2022-10-16T07:16:22;101144.75;;;13.30;81.18
54978;BME280;40873;47.522;19.106;2022-10-16T07:18:50;101139.75;;;13.39;79.19
54978;BME280;40873;47.522;19.106;2022-10-16T07:21:21;101146.16;;;13.65;77.85
54978;BME280;40873;47.522;19.106;2022-10-16T07:23:53;101153.16;;;13.66;78.02
54978;BME280;40873;47.522;19.106;2022-10-16T07:26:22;101152.59;;;13.76;78.33
54978;BME280;40873;47.522;19.106;2022-10-16T07:28:49;101147.59;;;13.85;76.39
54978;BME280;40873;47.522;19.106;2022-10-16T07:31:18;101154.50;;;13.88;76.53
54978;BME280;40873;47.522;19.106;2022-10-16T07:33:46;101158.66;;;14.20;74.57
54978;BME280;40873;47.522;19.106;2022-10-16T07:36:18;101169.66;;;14.29;74.50
54978;BME280;40873;47.522;19.106;2022-10-16T07:38:46;101179.59;;;14.39;74.61
54978;BME280;40873;47.522;19.106;2022-10-16T07:41:15;101177.88;;;14.52;73.55
54978;BME280;40873;47.522;19.106;2022-10-16T07:43:47;101175.78;;;14.72;71.84
54978;BME280;40873;47.522;19.106;2022-10-16T07:46:15;101176.97;;;14.80;72.70
54978;BME280;40873;47.522;19.106;2022-10-16T07:48:43;101179.50;;;14.96;70.42
54978;BME280;40873;47.522;19.106;2022-10-16T07:51:18;101184.94;;;15.07;70.70
54978;BME280;40873;47.522;19.106;2022-10-16T07:53:46;101186.81;;;15.20;69.31
54978;BME280;40873;47.522;19.106;2022-10-16T07:56:14;101176.69;;;15.12;70.74
54978;BME280;40873;47.522;19.106;2022-10-16T07:58:42;101179.56;;;15.22;69.78
54978;BME280;40873;47.522;19.106;2022-10-16T08:01:14;101179.59;;;15.34;68.58
54978;BME280;40873;47.522;19.106;2022-10-16T08:03:45;101180.16;;;15.40;68.73
54978;BME280;40873;47.522;19.106;2022-10-16T08:06:13;101175.38;;;15.57;69.22
54978;BME280;40873;47.522;19.106;2022-10-16T08:08:40;101184.44;;;15.55;67.92
54978;BME280;40873;47.522;19.106;2022-10-16T08:11:07;101177.78;;;15.75;68.59
54978;BME280;40873;47.522;19.106;2022-10-16T08:13:35;101183.97;;;15.88;70.10
54978;BME280;40873;47.522;19.106;2022-10-16T08:16:02;101182.34;;;16.11;66.58
54978;BME280;40873;47.522;19.106;2022-10-16T08:18:30;101183.31;;;16.23;64.72
54978;BME280;40873;47.522;19.106;2022-10-16T08:20:58;101190.69;;;15.94;65.18
54978;BME280;40873;47.522;19.106;2022-10-16T08:23:26;101196.75;;;15.96;66.55
54978;BME280;40873;47.522;19.106;2022-10-16T08:25:55;101200.78;;;16.14;66.34
54978;BME280;40873;47.522;19.106;2022-10-16T08:28:22;101196.31;;;16.27;65.31
54978;BME280;40873;47.522;19.106;2022-10-16T08:30:50;101200.44;;;16.44;64.12
54978;BME280;40873;47.522;19.106;2022-10-16T08:33:17;101200.44;;;16.44;64.22
54978;BME280;40873;47.522;19.106;2022-10-16T08:35:53;101211.06;;;16.69;66.58
54978;BME280;40873;47.522;19.106;2022-10-16T08:38:20;101216.03;;;16.74;63.05
54978;BME280;40873;47.522;19.106;2022-10-16T08:40:50;101209.50;;;16.91;62.23
54978;BME280;40873;47.522;19.106;2022-10-16T08:48:30;101212.69;;;17.20;60.82
54978;BME280;40873;47.522;19.106;2022-10-16T08:51:02;101216.50;;;17.05;62.04
54978;BME280;40873;47.522;19.106;2022-10-16T08:53:42;101210.13;;;17.18;61.55
54978;BME280;40873;47.522;19.106;2022-10-16T08:56:10;101208.66;;;17.49;62.47
54978;BME280;40873;47.522;19.106;2022-10-16T08:58:37;101207.81;;;17.84;60.91
54978;BME280;40873;47.522;19.106;2022-10-16T09:01:15;101211.00;;;18.00;60.31
54978;BME280;40873;47.522;19.106;2022-10-16T09:10:08;101211.97;;;17.53;59.62
54978;BME280;40873;47.522;19.106;2022-10-16T09:16:14;101217.91;;;17.80;59.02
54978;BME280;40873;47.522;19.106;2022-10-16T09:18:44;101223.78;;;18.30;57.78
54978;BME280;40873;47.522;19.106;2022-10-16T09:21:19;101221.72;;;18.79;58.26
54978;BME280;40873;47.522;19.106;2022-10-16T09:23:48;101218.38;;;18.98;59.07
54978;BME280;40873;47.522;19.106;2022-10-16T09:26:17;101214.81;;;19.20;56.47
54978;BME280;40873;47.522;19.106;2022-10-16T09:28:45;101214.53;;;18.79;55.92
54978;BME280;40873;47.522;19.106;2022-10-16T09:31:18;101202.28;;;18.43;57.10
54978;BME280;40873;47.522;19.106;2022-10-16T09:33:49;101201.94;;;19.13;58.43
54978;BME280;40873;47.522;19.106;2022-10-16T09:36:17;101208.94;;;19.47;54.91
54978;BME280;40873;47.522;19.106;2022-10-16T09:38:44;101215.19;;;19.04;54.88
54978;BME280;40873;47.522;19.106;2022-10-16T09:41:20;101209.91;;;19.25;54.89
54978;BME280;40873;47.522;19.106;2022-10-16T09:43:54;101220.81;;;19.65;54.62
54978;BME280;40873;47.522;19.106;2022-10-16T09:48:56;101218.56;;;19.17;55.55
54978;BME280;40873;47.522;19.106;2022-10-16T09:51:29;101220.69;;;19.87;53.74
54978;BME280;40873;47.522;19.106;2022-10-16T09:54:01;101227.63;;;19.69;53.18
54978;BME280;40873;47.522;19.106;2022-10-16T09:56:33;101229.78;;;19.75;53.52
54978;BME280;40873;47.522;19.106;2022-10-16T09:59:03;101232.22;;;20.09;52.50
54978;BME280;40873;47.522;19.106;2022-10-16T10:01:38;101226.66;;;19.91;54.03
54978;BME280;40873;47.522;19.106;2022-10-16T10:04:06;101226.53;;;20.23;52.49
54978;BME280;40873;47.522;19.106;2022-10-16T10:06:35;101235.84;;;19.98;52.35
54978;BME280;40873;47.522;19.106;2022-10-16T10:11:50;101233.25;;;20.78;52.59
54978;BME280;40873;47.522;19.106;2022-10-16T10:14:45;101227.69;;;19.99;51.71
54978;BME280;40873;47.522;19.106;2022-10-16T10:17:26;101219.97;;;19.85;52.83
54978;BME280;40873;47.522;19.106;2022-10-16T10:28:39;101203.16;;;21.64;50.13
54978;BME280;40873;47.522;19.106;2022-10-16T10:33:47;101195.78;;;21.66;47.26
54978;BME280;40873;47.522;19.106;2022-10-16T10:48:03;101195.41;;;22.44;47.32
54978;BME280;40873;47.522;19.106;2022-10-16T10:50:41;101196.75;;;22.58;46.40
54978;BME280;40873;47.522;19.106;2022-10-16T10:53:21;101195.25;;;22.74;45.96
54978;BME280;40873;47.522;19.106;2022-10-16T10:56:09;101202.34;;;23.02;44.92
54978;BME280;40873;47.522;19.106;2022-10-16T11:01:52;101191.81;;;23.09;44.12
54978;BME280;40873;47.522;19.106;2022-10-16T11:04:33;101199.78;;;23.54;44.14
54978;BME280;40873;47.522;19.106;2022-10-16T11:07:05;101193.06;;;23.76;44.39
54978;BME280;40873;47.522;19.106;2022-10-16T11:09:41;101192.50;;;24.24;42.67
54978;BME280;40873;47.522;19.106;2022-10-16T11:12:17;101192.59;;;24.06;42.90
54978;BME280;40873;47.522;19.106;2022-10-16T11:17:40;101186.28;;;23.98;43.04
54978;BME280;40873;47.522;19.106;2022-10-16T11:20:31;101171.84;;;24.33;42.17
54978;BME280;40873;47.522;19.106;2022-10-16T11:23:04;101170.63;;;24.27;42.71
54978;BME280;40873;47.522;19.106;2022-10-16T11:25:33;101167.03;;;24.45;42.42
54978;BME280;40873;47.522;19.106;2022-10-16T11:28:07;101170.03;;;24.08;42.36
54978;BME280;40873;47.522;19.106;2022-10-16T11:30:57;101170.03;;;24.08;42.35
54978;BME280;40873;47.522;19.106;2022-10-16T11:34:12;101169.91;;;24.17;42.46
54978;BME280;40873;47.522;19.106;2022-10-16T11:36:31;101167.56;;;24.56;41.40
54978;BME280;40873;47.522;19.106;2022-10-16T11:39:20;101156.59;;;23.90;42.61
54978;BME280;40873;47.522;19.106;2022-10-16T11:41:53;101164.84;;;24.14;42.69
54978;BME280;40873;47.522;19.106;2022-10-16T11:47:34;101158.78;;;24.54;41.02
54978;BME280;40873;47.522;19.106;2022-10-16T11:50:40;101160.56;;;24.03;41.49
54978;BME280;40873;47.522;19.106;2022-10-16T11:55:49;101163.72;;;23.99;41.23
54978;BME280;40873;47.522;19.106;2022-10-16T11:58:25;101166.53;;;24.41;40.55
54978;BME280;40873;47.522;19.106;2022-10-16T12:06:59;101160.47;;;24.13;40.97
54978;BME280;40873;47.522;19.106;2022-10-16T12:09:30;101161.16;;;23.45;42.62
54978;BME280;40873;47.522;19.106;2022-10-16T12:12:00;101154.50;;;23.32;42.64
54978;BME280;40873;47.522;19.106;2022-10-16T12:14:37;101158.25;;;23.21;43.14
54978;BME280;40873;47.522;19.106;2022-10-16T12:17:34;101157.34;;;22.49;44.58
54978;BME280;40873;47.522;19.106;2022-10-16T12:25:31;101155.63;;;21.74;46.78
54978;BME280;40873;47.522;19.106;2022-10-16T12:28:03;101153.28;;;21.51;47.24
54978;BME280;40873;47.522;19.106;2022-10-16T12:30:34;101153.88;;;21.36;46.77
54978;BME280;40873;47.522;19.106;2022-10-16T12:33:32;101154.41;;;21.39;47.21
54978;BME280;40873;47.522;19.106;2022-10-16T12:36:02;101153.38;;;21.21;47.79
54978;BME280;40873;47.522;19.106;2022-10-16T12:38:37;101144.81;;;21.07;49.00
54978;BME280;40873;47.522;19.106;2022-10-16T12:41:07;101146.91;;;20.94;49.29
54978;BME280;40873;47.522;19.106;2022-10-16T12:48:38;101160.66;;;20.51;49.32
54978;BME280;40873;47.522;19.106;2022-10-16T12:51:33;101161.44;;;20.72;49.19
54978;BME280;40873;47.522;19.106;2022-10-16T13:07:53;101158.72;;;20.63;49.20
54978;BME280;40873;47.522;19.106;2022-10-16T13:13:23;101167.91;;;20.70;48.86
54978;BME280;40873;47.522;19.106;2022-10-16T13:16:35;101169.03;;;20.67;49.29
54978;BME280;40873;47.522;19.106;2022-10-16T13:27:59;101169.00;;;20.58;48.62
54978;BME280;40873;47.522;19.106;2022-10-16T13:30:29;101168.69;;;20.51;49.54
54978;BME280;40873;47.522;19.106;2022-10-16T13:33:37;101176.31;;;20.46;49.69
54978;BME280;40873;47.522;19.106;2022-10-16T13:36:03;101170.53;;;20.50;49.44
54978;BME280;40873;47.522;19.106;2022-10-16T13:38:35;101167.44;;;20.55;48.42
54978;BME280;40873;47.522;19.106;2022-10-16T13:41:13;101166.44;;;20.46;48.71
54978;BME280;40873;47.522;19.106;2022-10-16T13:43:43;101167.84;;;20.50;49.34
54978;BME280;40873;47.522;19.106;2022-10-16T13:46:20;101167.00;;;20.50;49.32
54978;BME280;40873;47.522;19.106;2022-10-16T13:49:01;101175.19;;;20.48;49.07
54978;BME280;40873;47.522;19.106;2022-10-16T13:51:30;101178.50;;;20.31;49.89
54978;BME280;40873;47.522;19.106;2022-10-16T13:53:57;101170.88;;;20.36;50.44
54978;BME280;40873;47.522;19.106;2022-10-16T13:56:30;101182.53;;;20.46;49.05
54978;BME280;40873;47.522;19.106;2022-10-16T13:59:02;101174.63;;;20.45;49.38
54978;BME280;40873;47.522;19.106;2022-10-16T14:01:34;101179.09;;;20.44;49.08
54978;BME280;40873;47.522;19.106;2022-10-16T14:04:08;101179.97;;;20.45;49.63
54978;BME280;40873;47.522;19.106;2022-10-16T14:06:36;101176.63;;;20.52;49.82
54978;BME280;40873;47.522;19.106;2022-10-16T14:09:07;101185.13;;;20.67;49.12
54978;BME280;40873;47.522;19.106;2022-10-16T14:11:45;101182.88;;;20.72;47.98
54978;BME280;40873;47.522;19.106;2022-10-16T14:14:14;101180.88;;;20.65;48.34
54978;BME280;40873;47.522;19.106;2022-10-16T14:16:43;101172.41;;;20.60;48.75
54978;BME280;40873;47.522;19.106;2022-10-16T14:19:25;101177.03;;;20.58;49.88
54978;BME280;40873;47.522;19.106;2022-10-16T14:21:54;101171.28;;;20.62;49.48
54978;BME280;40873;47.522;19.106;2022-10-16T14:26:57;101179.00;;;20.56;49.23
54978;BME280;40873;47.522;19.106;2022-10-16T14:29:26;101177.03;;;20.58;49.30
54978;BME280;40873;47.522;19.106;2022-10-16T14:32:04;101174.19;;;20.49;48.00
54978;BME280;40873;47.522;19.106;2022-10-16T14:34:37;101172.56;;;20.37;48.63
54978;BME280;40873;47.522;19.106;2022-10-16T14:37:23;101175.81;;;20.31;49.19
54978;BME280;40873;47.522;19.106;2022-10-16T14:39:54;101182.19;;;20.40;48.53
54978;BME280;40873;47.522;19.106;2022-10-16T14:42:25;101183.44;;;20.36;48.04
54978;BME280;40873;47.522;19.106;2022-10-16T14:44:53;101185.16;;;20.16;48.86
54978;BME280;40873;47.522;19.106;2022-10-16T14:47:25;101184.06;;;20.18;49.40
54978;BME280;40873;47.522;19.106;2022-10-16T14:49:54;101189.56;;;20.17;48.74
54978;BME280;40873;47.522;19.106;2022-10-16T14:52:22;101187.19;;;20.23;49.36
54978;BME280;40873;47.522;19.106;2022-10-16T14:54:50;101189.25;;;20.10;50.26
54978;BME280;40873;47.522;19.106;2022-10-16T14:57:23;101186.38;;;20.02;50.10
54978;BME280;40873;47.522;19.106;2022-10-16T14:59:51;101181.53;;;20.17;49.90